Time;durP1;ratioP1;P1;durP2;ratioP2;P2;SDS_P1;SDS_P2;PMS_P1;PMS_P2;Temp;Humidity;BMP_temperature;BMP_pressure;BME280_temperature;BME280_humidity;BME280_pressure;Samples;Min_cycle;Max_cycle;Signal;HPM_P1;HPM_P2
2021/10/15 00:00:43;;;;;;;7.15;4.15;;;29.90;90.20;;;;;;5105110;28;20224;-46
2021/10/15 00:03:12;;;;;;;8.68;4.25;;;29.90;90.20;;;;;;5104342;28;20383;-47
2021/10/15 00:05:39;;;;;;;7.90;3.75;;;29.90;90.10;;;;;;5104601;28;20034;-50
2021/10/15 00:08:05;;;;;;;8.52;3.78;;;29.90;90.10;;;;;;5103794;28;20320;-48
2021/10/15 00:10:32;;;;;;;7.45;3.70;;;29.90;90.00;;;;;;5104593;28;20205;-49
2021/10/15 00:12:58;;;;;;;7.18;3.90;;;29.90;90.00;;;;;;5103978;28;20312;-51
2021/10/15 00:15:25;;;;;;;8.70;3.40;;;29.90;89.80;;;;;;5104437;28;20036;-48
2021/10/15 00:17:52;;;;;;;11.02;3.67;;;29.90;89.80;;;;;;5104257;28;20083;-50
2021/10/15 00:20:19;;;;;;;11.27;2.88;;;29.90;89.70;;;;;;5104066;28;20109;-52
2021/10/15 00:22:46;;;;;;;8.30;3.10;;;29.90;89.60;;;;;;5104097;28;20212;-52
2021/10/15 00:25:12;;;;;;;8.77;3.15;;;29.90;89.50;;;;;;5104396;28;20020;-52
2021/10/15 00:27:39;;;;;;;7.13;3.38;;;29.90;89.50;;;;;;5104037;28;20068;-54
2021/10/15 00:30:06;;;;;;;6.43;3.80;;;29.80;89.30;;;;;;5104327;28;20027;-48
2021/10/15 00:32:32;;;;;;;14.45;5.78;;;29.80;89.40;;;;;;5103995;28;20012;-49
2021/10/15 00:34:59;;;;;;;15.27;7.45;;;29.80;89.40;;;;;;5103925;28;20039;-49
2021/10/15 00:37:25;;;;;;;16.30;6.97;;;29.80;89.30;;;;;;5104002;28;20024;-53
2021/10/15 00:39:52;;;;;;;13.75;8.00;;;29.80;89.40;;;;;;5104063;28;20024;-44
2021/10/15 00:42:19;;;;;;;13.82;7.78;;;29.80;89.40;;;;;;5103849;28;20028;-50
2021/10/15 00:44:45;;;;;;;17.15;9.23;;;29.70;89.30;;;;;;5103920;28;20032;-50
2021/10/15 00:47:12;;;;;;;14.70;9.45;;;29.80;89.40;;;;;;5103776;28;20053;-53
2021/10/15 00:49:39;;;;;;;18.52;11.15;;;29.70;89.10;;;;;;5103802;28;20247;-50
2021/10/15 00:52:08;;;;;;;13.50;10.00;;;29.70;89.00;;;;;;5102642;28;20079;-47
2021/10/15 00:54:35;;;;;;;22.73;13.07;;;29.70;89.20;;;;;;5103701;28;20313;-49
2021/10/15 00:57:02;;;;;;;18.15;12.07;;;29.70;89.20;;;;;;5103843;28;20296;-47
2021/10/15 00:59:29;;;;;;;47.92;27.70;;;29.70;89.00;;;;;;5103519;28;20223;-48
2021/10/15 01:01:55;;;;;;;237.85;128.77;;;29.70;89.00;;;;;;5103675;28;20027;-49
2021/10/15 01:04:22;;;;;;;167.73;92.28;;;29.70;88.90;;;;;;5103721;28;20047;-47
2021/10/15 01:06:49;;;;;;;206.75;114.72;;;29.70;88.90;;;;;;5103630;28;20065;-42
2021/10/15 01:09:16;;;;;;;159.38;93.63;;;29.70;88.80;;;;;;5103458;28;20028;-52
2021/10/15 01:11:43;;;;;;;140.98;82.40;;;29.70;88.80;;;;;;5103519;28;20213;-52
2021/10/15 01:14:13;;;;;;;128.52;75.85;;;29.60;89.00;;;;;;5103506;28;20061;-48
2021/10/15 01:16:39;;;;;;;119.45;69.75;;;29.60;88.40;;;;;;5103052;28;20047;-52
2021/10/15 01:19:06;;;;;;;111.38;61.55;;;29.60;87.90;;;;;;5105108;28;20019;-50
2021/10/15 01:21:33;;;;;;;99.65;60.17;;;29.60;88.00;;;;;;5107546;28;20032;-46
2021/10/15 01:24:00;;;;;;;92.68;55.60;;;29.60;87.90;;;;;;5106207;28;20074;-48
2021/10/15 01:26:27;;;;;;;89.72;50.78;;;29.60;87.80;;;;;;5107598;28;20028;-49
2021/10/15 01:28:55;;;;;;;74.97;41.58;;;29.60;87.60;;;;;;5107381;28;20043;-50
2021/10/15 01:31:25;;;;;;;67.78;41.10;;;29.50;87.60;;;;;;5107564;28;20020;-43
2021/10/15 01:33:56;;;;;;;62.05;35.03;;;29.60;87.50;;;;;;5107108;28;20016;-50
2021/10/15 01:36:23;;;;;;;59.28;32.38;;;29.60;87.40;;;;;;5107535;28;20038;-48
2021/10/15 01:38:49;;;;;;;50.17;29.15;;;29.50;87.20;;;;;;5107296;28;20020;-46
2021/10/15 01:41:16;;;;;;;40.80;24.75;;;29.50;87.00;;;;;;5107474;28;20024;-45
2021/10/15 01:43:42;;;;;;;45.92;24.52;;;29.50;86.80;;;;;;5107013;28;20026;-46
2021/10/15 01:46:09;;;;;;;37.47;21.55;;;29.50;86.80;;;;;;5107458;28;20036;-45
2021/10/15 01:48:36;;;;;;;35.50;19.90;;;29.50;86.80;;;;;;5106824;28;20027;-49
2021/10/15 01:51:02;;;;;;;35.60;18.83;;;29.50;86.60;;;;;;5107246;28;20246;-47
2021/10/15 01:53:30;;;;;;;28.40;16.08;;;29.40;86.40;;;;;;5106850;28;20016;-51
2021/10/15 01:55:57;;;;;;;29.52;16.55;;;29.40;86.50;;;;;;5107049;28;20220;-51
2021/10/15 01:58:23;;;;;;;21.10;12.82;;;29.40;86.40;;;;;;5106509;28;20058;-51
2021/10/15 02:00:50;;;;;;;20.05;11.70;;;29.40;86.80;;;;;;5105626;28;20027;-45
2021/10/15 02:03:17;;;;;;;18.20;11.52;;;29.40;86.10;;;;;;5106632;28;20020;-49
2021/10/15 02:05:44;;;;;;;15.57;9.88;;;29.40;86.20;;;;;;5106796;28;20405;-47
2021/10/15 02:08:11;;;;;;;15.00;9.15;;;29.40;86.20;;;;;;5106457;28;20129;-49
2021/10/15 02:10:37;;;;;;;20.55;8.00;;;29.40;86.00;;;;;;5106344;28;20036;-52
2021/10/15 02:13:04;;;;;;;12.18;6.55;;;29.40;85.90;;;;;;5106275;28;20339;-47
2021/10/15 02:15:31;;;;;;;9.57;6.03;;;29.40;85.80;;;;;;5106761;28;20289;-50
2021/10/15 02:17:58;;;;;;;10.15;5.50;;;29.30;85.80;;;;;;5106371;28;20031;-50
2021/10/15 02:20:24;;;;;;;8.95;5.38;;;29.30;85.80;;;;;;5106343;28;20091;-47
2021/10/15 02:22:52;;;;;;;9.77;4.95;;;29.30;85.90;;;;;;5106350;28;20016;-54
2021/10/15 02:25:49;;;;;;;9.75;4.50;;;29.30;85.90;;;;;;5106252;28;20020;-48
2021/10/15 02:28:15;;;;;;;9.80;4.75;;;29.30;85.70;;;;;;5106059;28;20043;-47
2021/10/15 02:30:43;;;;;;;5.97;3.88;;;29.30;85.70;;;;;;5105994;28;20031;-49
2021/10/15 02:33:11;;;;;;;8.77;4.05;;;29.30;85.70;;;;;;5106099;28;20258;-52
2021/10/15 02:35:37;;;;;;;6.30;3.20;;;29.30;85.60;;;;;;5106275;28;20019;-43
2021/10/15 02:38:04;;;;;;;5.53;3.33;;;29.30;85.50;;;;;;5105845;28;20173;-50
2021/10/15 02:40:31;;;;;;;7.68;3.42;;;29.20;85.40;;;;;;5106278;28;20307;-52
2021/10/15 02:43:00;;;;;;;10.18;3.70;;;29.30;85.50;;;;;;5105912;28;20023;-51
2021/10/15 02:45:27;;;;;;;5.72;2.90;;;29.20;85.50;;;;;;5105811;28;20083;-54
2021/10/15 02:47:53;;;;;;;4.95;2.67;;;29.20;85.40;;;;;;5105563;28;20063;-51
2021/10/15 02:50:20;;;;;;;6.93;2.78;;;29.20;85.40;;;;;;5105912;28;20016;-52
2021/10/15 02:52:46;;;;;;;8.65;2.70;;;29.20;85.40;;;;;;5105644;28;20020;-46
2021/10/15 02:55:13;;;;;;;4.50;2.53;;;29.20;85.40;;;;;;5105637;28;20092;-47
2021/10/15 02:57:40;;;;;;;5.88;2.70;;;29.20;85.40;;;;;;5105587;28;20333;-44
2021/10/15 03:00:07;;;;;;;6.68;3.30;;;29.20;85.50;;;;;;5105664;28;20031;-48
2021/10/15 03:02:34;;;;;;;7.00;3.70;;;29.20;85.60;;;;;;5105163;28;20027;-50
2021/10/15 03:05:00;;;;;;;6.35;4.03;;;29.20;85.60;;;;;;5105613;28;20038;-49
2021/10/15 03:07:27;;;;;;;6.78;4.13;;;29.20;85.60;;;;;;5105282;28;20016;-46
2021/10/15 03:09:54;;;;;;;8.65;4.03;;;29.10;85.70;;;;;;5105143;28;20039;-44
2021/10/15 03:12:20;;;;;;;6.47;3.55;;;29.10;85.70;;;;;;5105183;28;20012;-43
2021/10/15 03:14:47;;;;;;;5.95;3.40;;;29.10;85.80;;;;;;5105217;28;20024;-45
2021/10/15 03:17:13;;;;;;;9.52;4.40;;;29.10;85.70;;;;;;5104978;28;20027;-45
2021/10/15 03:19:40;;;;;;;8.55;4.47;;;29.10;85.60;;;;;;5105234;28;20332;-46
2021/10/15 03:22:07;;;;;;;9.13;5.35;;;29.10;85.70;;;;;;5105051;28;20044;-46
2021/10/15 03:24:33;;;;;;;13.48;5.70;;;29.10;85.80;;;;;;5103651;28;20053;-46
2021/10/15 03:27:00;;;;;;;11.93;6.47;;;29.10;85.80;;;;;;5104887;28;20087;-47
2021/10/15 03:29:27;;;;;;;10.25;6.60;;;29.10;85.80;;;;;;5104885;28;20047;-51
2021/10/15 03:31:53;;;;;;;9.45;6.50;;;29.10;85.80;;;;;;5104822;28;20024;-53
2021/10/15 03:34:20;;;;;;;9.38;6.07;;;29.10;85.80;;;;;;5103743;28;20216;-47
2021/10/15 03:36:46;;;;;;;9.82;5.63;;;29.10;85.70;;;;;;5104792;28;20020;-50
2021/10/15 03:39:14;;;;;;;11.20;5.28;;;29.10;85.80;;;;;;5104568;28;20208;-48
2021/10/15 03:41:41;;;;;;;6.97;4.72;;;29.10;85.70;;;;;;5104011;28;20035;-46
2021/10/15 03:44:07;;;;;;;6.28;4.05;;;29.00;85.60;;;;;;5104823;28;20093;-54
2021/10/15 03:46:34;;;;;;;7.78;4.00;;;29.00;85.60;;;;;;5104498;28;20030;-50
2021/10/15 03:49:00;;;;;;;6.13;3.80;;;29.00;85.50;;;;;;5104679;28;20034;-45
2021/10/15 03:51:27;;;;;;;6.57;3.42;;;29.00;85.50;;;;;;5104903;28;20020;-49
2021/10/15 03:53:53;;;;;;;9.43;4.63;;;29.00;85.50;;;;;;5104415;28;20020;-49
2021/10/15 03:56:20;;;;;;;9.85;5.10;;;29.00;85.50;;;;;;5104768;28;20289;-47
2021/10/15 03:58:47;;;;;;;8.65;5.97;;;29.00;85.50;;;;;;5104428;28;20072;-46
2021/10/15 04:01:13;;;;;;;10.90;6.70;;;29.00;85.50;;;;;;5104733;28;20024;-55
2021/10/15 04:03:40;;;;;;;8.32;5.10;;;29.00;85.30;;;;;;5104384;28;20058;-48
2021/10/15 04:06:06;;;;;;;8.93;4.50;;;29.00;85.30;;;;;;5104771;28;20055;-47
2021/10/15 04:08:33;;;;;;;9.75;4.97;;;29.00;85.40;;;;;;5104172;28;20304;-49
2021/10/15 04:10:59;;;;;;;9.18;4.40;;;29.00;85.30;;;;;;5104664;28;20026;-52
2021/10/15 04:13:26;;;;;;;7.95;4.13;;;28.90;85.20;;;;;;5104215;28;20046;-49
2021/10/15 04:15:53;;;;;;;5.97;3.58;;;29.00;85.20;;;;;;5104715;28;20437;-51
2021/10/15 04:18:19;;;;;;;8.38;3.83;;;29.00;85.20;;;;;;5104321;28;20028;-47
2021/10/15 04:20:46;;;;;;;7.88;3.40;;;28.90;85.20;;;;;;5104492;28;20024;-46
2021/10/15 04:23:12;;;;;;;6.57;3.20;;;28.90;85.00;;;;;;5104258;28;20028;-47
2021/10/15 04:25:39;;;;;;;7.22;3.00;;;28.90;85.00;;;;;;5104215;28;20035;-44
2021/10/15 04:28:06;;;;;;;6.05;3.30;;;28.90;85.10;;;;;;5104003;28;20020;-46
2021/10/15 04:30:32;;;;;;;6.72;2.78;;;28.90;85.10;;;;;;5104357;28;20016;-44
2021/10/15 04:32:59;;;;;;;5.70;2.70;;;28.90;85.00;;;;;;5103933;28;20024;-46
2021/10/15 04:35:26;;;;;;;7.28;3.10;;;28.90;85.00;;;;;;5104287;28;20086;-46
2021/10/15 04:37:52;;;;;;;5.20;2.60;;;28.90;84.90;;;;;;5102854;28;20083;-44
2021/10/15 04:40:19;;;;;;;4.05;2.40;;;28.90;85.10;;;;;;5104041;28;20028;-50
2021/10/15 04:42:45;;;;;;;4.95;2.35;;;28.90;85.10;;;;;;5103954;28;20023;-49
2021/10/15 04:45:12;;;;;;;4.80;2.28;;;28.90;85.10;;;;;;5104080;28;20097;-43
2021/10/15 04:47:39;;;;;;;6.43;2.38;;;28.80;85.10;;;;;;5103729;28;20020;-43
2021/10/15 04:50:06;;;;;;;4.47;2.47;;;28.80;85.20;;;;;;5103892;28;20028;-43
2021/10/15 04:52:33;;;;;;;4.18;2.30;;;28.90;85.50;;;;;;5104763;28;20083;-44
2021/10/15 04:54:59;;;;;;;6.20;2.42;;;28.80;85.50;;;;;;5108001;28;20034;-50
2021/10/15 04:57:26;;;;;;;3.60;2.40;;;28.80;85.60;;;;;;5107814;28;20036;-41
2021/10/15 04:59:53;;;;;;;4.95;2.55;;;28.80;85.70;;;;;;5107952;28;20039;-45
2021/10/15 05:02:19;;;;;;;3.88;2.53;;;28.80;85.70;;;;;;5107626;28;20205;-44
2021/10/15 05:04:46;;;;;;;8.30;3.22;;;28.80;85.80;;;;;;5107759;28;20047;-42
2021/10/15 05:07:13;;;;;;;9.95;4.00;;;28.80;85.90;;;;;;5107751;28;20041;-44
2021/10/15 05:09:41;;;;;;;7.97;4.05;;;28.80;86.00;;;;;;5107579;28;20056;-47
2021/10/15 05:12:18;;;;;;;8.93;4.40;;;28.80;86.00;;;;;;5107577;28;20012;-43
2021/10/15 05:14:45;;;;;;;7.50;4.63;;;28.80;86.30;;;;;;5107645;28;20039;-43
2021/10/15 05:17:12;;;;;;;8.30;4.70;;;28.70;86.40;;;;;;5107338;28;20016;-45
2021/10/15 05:19:40;;;;;;;9.32;4.63;;;28.70;87.20;;;;;;5107570;28;20242;-44
2021/10/15 05:22:07;;;;;;;8.10;4.72;;;28.70;86.80;;;;;;5107354;28;20044;-44
2021/10/15 05:24:34;;;;;;;9.27;4.32;;;28.70;87.00;;;;;;5107265;28;20032;-48
2021/10/15 05:27:00;;;;;;;8.48;5.10;;;28.70;87.00;;;;;;5107322;28;20042;-54
2021/10/15 05:29:27;;;;;;;9.15;5.22;;;28.70;87.10;;;;;;5107218;28;20027;-47
2021/10/15 05:31:54;;;;;;;9.20;5.40;;;28.70;87.20;;;;;;5107021;28;20027;-44
2021/10/15 05:34:20;;;;;;;11.52;5.25;;;28.70;87.40;;;;;;5107219;28;20024;-45
2021/10/15 05:36:48;;;;;;;11.98;6.85;;;28.70;87.40;;;;;;5107141;28;20019;-46
2021/10/15 05:39:16;;;;;;;14.40;7.72;;;28.70;87.40;;;;;;5106851;28;20153;-43
2021/10/15 05:41:42;;;;;;;15.05;9.23;;;28.70;87.30;;;;;;5107190;28;20020;-47
2021/10/15 05:44:09;;;;;;;12.70;7.28;;;28.60;87.20;;;;;;5106875;28;20019;-46
2021/10/15 05:46:36;;;;;;;11.43;7.35;;;28.70;87.20;;;;;;5106928;28;20023;-43
2021/10/15 05:49:07;;;;;;;12.32;7.22;;;28.60;87.10;;;;;;5106867;28;20046;-42
2021/10/15 05:51:37;;;;;;;9.63;6.40;;;28.60;87.30;;;;;;5106859;28;20254;-43
2021/10/15 05:54:05;;;;;;;9.57;6.45;;;28.60;87.30;;;;;;5106670;28;20012;-44
2021/10/15 05:57:15;;;;;;;14.95;6.10;;;28.60;87.30;;;;;;5107056;28;20305;-45
2021/10/15 05:59:23;;;;;;;;;;;28.60;87.40;;;;;;5104017;28;20111;-50
2021/10/15 06:01:54;;;;;;;11.35;6.20;;;28.60;87.40;;;;;;5106644;28;19931;-51
2021/10/15 06:14:10;;;;;;;16.25;8.38;;;28.50;87.60;;;;;;5106456;28;20054;-45
2021/10/15 06:14:59;;;;;;;11.90;8.23;;;28.50;87.80;;;;;;5106479;28;20145;-49
2021/10/15 06:17:26;;;;;;;14.43;8.27;;;28.50;87.90;;;;;;5106367;28;20035;-50
2021/10/15 06:19:53;;;;;;;15.25;8.60;;;28.50;88.00;;;;;;5106342;28;20028;-54
2021/10/15 06:22:25;;;;;;;13.95;9.10;;;28.50;88.00;;;;;;5106068;28;20034;-56
2021/10/15 06:24:52;;;;;;;12.63;8.57;;;28.50;88.20;;;;;;5106277;28;20031;-44
2021/10/15 06:27:20;;;;;;;12.30;7.82;;;28.50;88.30;;;;;;5106244;28;20201;-47
2021/10/15 06:29:48;;;;;;;13.07;8.07;;;28.50;88.30;;;;;;5106067;28;20020;-44
2021/10/15 06:32:17;;;;;;;13.32;7.28;;;28.50;88.40;;;;;;5106173;28;20016;-47
2021/10/15 06:34:44;;;;;;;12.90;6.93;;;28.50;88.50;;;;;;5106213;28;20012;-50
2021/10/15 06:37:10;;;;;;;10.00;6.47;;;28.50;88.50;;;;;;5105860;28;20065;-42
2021/10/15 06:39:38;;;;;;;11.02;6.28;;;28.50;88.60;;;;;;5106033;28;20028;-45
2021/10/15 06:42:04;;;;;;;11.02;6.50;;;28.40;88.60;;;;;;5105994;28;20073;-44
2021/10/15 06:44:31;;;;;;;9.57;6.65;;;28.40;88.60;;;;;;5105746;28;20035;-45
2021/10/15 06:46:57;;;;;;;11.15;6.55;;;28.40;88.60;;;;;;5105824;28;20042;-43
2021/10/15 06:49:24;;;;;;;10.70;6.35;;;28.40;88.60;;;;;;5105705;28;20024;-45
2021/10/15 06:51:51;;;;;;;11.93;5.90;;;28.40;88.60;;;;;;5105624;28;20044;-51
2021/10/15 06:54:17;;;;;;;9.18;5.70;;;28.40;88.60;;;;;;5105655;28;20122;-50
2021/10/15 06:56:45;;;;;;;8.73;5.88;;;28.40;88.60;;;;;;5105473;28;20064;-49
2021/10/15 06:59:11;;;;;;;8.77;4.72;;;28.40;89.00;;;;;;5105409;28;20313;-41
2021/10/15 07:01:38;;;;;;;6.35;4.18;;;28.40;88.40;;;;;;5105563;28;20065;-44
2021/10/15 07:04:05;;;;;;;6.18;3.90;;;28.40;88.30;;;;;;5105647;28;20020;-44
2021/10/15 07:06:31;;;;;;;6.82;4.13;;;28.40;88.10;;;;;;5105810;28;20038;-43
2021/10/15 07:09:00;;;;;;;4.53;3.10;;;28.40;88.00;;;;;;5105438;28;20058;-42
2021/10/15 07:11:26;;;;;;;5.10;3.28;;;28.40;87.80;;;;;;5105736;28;20243;-44
2021/10/15 07:13:53;;;;;;;4.55;2.70;;;28.40;87.60;;;;;;5104072;28;20027;-42
2021/10/15 07:16:20;;;;;;;6.97;3.13;;;28.30;87.40;;;;;;5104685;28;20024;-50
2021/10/15 07:18:46;;;;;;;4.50;2.85;;;28.30;87.40;;;;;;5105303;28;20039;-44
2021/10/15 07:21:13;;;;;;;6.50;2.30;;;28.30;87.40;;;;;;5105364;28;20035;-44
2021/10/15 07:23:39;;;;;;;4.15;2.20;;;28.30;87.40;;;;;;5105170;28;20020;-45
2021/10/15 07:26:06;;;;;;;4.88;2.28;;;28.30;87.50;;;;;;5105306;28;20091;-51
2021/10/15 07:28:32;;;;;;;5.53;2.40;;;28.30;87.40;;;;;;5104905;28;20043;-49
2021/10/15 07:30:59;;;;;;;4.40;2.10;;;28.30;87.30;;;;;;5105402;28;20339;-43
2021/10/15 07:33:26;;;;;;;5.70;2.10;;;28.30;87.30;;;;;;5104997;28;20324;-51
2021/10/15 07:35:53;;;;;;;4.97;2.05;;;28.30;87.30;;;;;;5105210;28;20107;-45
2021/10/15 07:38:19;;;;;;;4.57;2.00;;;28.30;87.40;;;;;;5104832;28;20331;-43
2021/10/15 07:40:46;;;;;;;7.85;2.22;;;28.30;87.40;;;;;;5105316;28;20028;-44
2021/10/15 07:43:13;;;;;;;4.55;2.00;;;28.30;87.40;;;;;;5104764;28;20061;-47
2021/10/15 07:45:39;;;;;;;3.50;2.00;;;28.30;87.50;;;;;;5104885;28;20032;-49
2021/10/15 07:48:06;;;;;;;4.10;1.80;;;28.30;87.50;;;;;;5104542;28;20019;-48
2021/10/15 07:50:33;;;;;;;5.28;2.05;;;28.20;87.50;;;;;;5104931;28;20065;-46
2021/10/15 07:52:59;;;;;;;2.67;1.80;;;28.30;87.60;;;;;;5104509;28;20012;-49
2021/10/15 07:55:26;;;;;;;5.43;2.00;;;28.20;87.50;;;;;;5104853;28;20065;-45
2021/10/15 07:57:53;;;;;;;4.00;2.40;;;28.20;87.60;;;;;;5104558;28;20154;-42
2021/10/15 08:00:20;;;;;;;4.88;1.88;;;28.20;87.70;;;;;;5104513;28;20049;-52
2021/10/15 08:02:46;;;;;;;6.88;2.20;;;28.20;87.80;;;;;;5104379;28;20031;-44
2021/10/15 08:05:16;;;;;;;8.23;1.92;;;28.20;87.90;;;;;;5104611;28;20035;-46
2021/10/15 08:07:43;;;;;;;4.50;2.03;;;28.20;88.00;;;;;;5104177;28;20216;-42
2021/10/15 08:10:10;;;;;;;5.00;2.00;;;28.20;88.00;;;;;;5104399;28;20065;-48
2021/10/15 08:12:37;;;;;;;3.03;1.80;;;28.20;88.10;;;;;;5104284;28;20312;-51
2021/10/15 08:15:11;;;;;;;4.32;1.83;;;28.20;88.10;;;;;;5104313;28;20028;-50
2021/10/15 08:17:38;;;;;;;5.30;1.90;;;28.20;88.30;;;;;;5104247;28;20278;-48
2021/10/15 08:20:05;;;;;;;6.00;1.90;;;28.10;88.30;;;;;;5104373;28;20035;-42
2021/10/15 08:22:32;;;;;;;6.65;2.03;;;28.20;88.40;;;;;;5104086;28;20209;-43
2021/10/15 08:24:59;;;;;;;5.95;2.08;;;28.10;88.40;;;;;;5104150;28;20027;-42
2021/10/15 08:27:26;;;;;;;3.97;1.95;;;28.10;88.50;;;;;;5103724;28;20020;-46
2021/10/15 08:29:52;;;;;;;4.25;1.83;;;28.20;88.60;;;;;;5103915;28;20073;-45
2021/10/15 08:32:19;;;;;;;3.55;1.95;;;28.20;88.60;;;;;;5104152;28;20076;-47
2021/10/15 08:34:45;;;;;;;6.63;2.13;;;28.10;88.40;;;;;;5104144;28;20032;-45
2021/10/15 08:37:12;;;;;;;4.78;2.15;;;28.10;88.50;;;;;;5103879;28;20079;-43
2021/10/15 08:39:39;;;;;;;4.68;2.22;;;28.10;88.60;;;;;;5103999;28;20031;-49
2021/10/15 08:42:05;;;;;;;4.40;2.00;;;28.10;88.70;;;;;;5103987;28;20023;-45
2021/10/15 08:44:37;;;;;;;5.03;1.75;;;28.10;88.70;;;;;;5103844;28;20047;-43
2021/10/15 08:47:05;;;;;;;3.47;1.73;;;28.10;88.80;;;;;;5103949;28;20051;-44
2021/10/15 08:49:32;;;;;;;4.45;2.08;;;28.10;88.80;;;;;;5103847;28;20032;-47
2021/10/15 08:51:59;;;;;;;5.70;1.80;;;28.10;88.90;;;;;;5103696;28;20020;-45
2021/10/15 08:54:27;;;;;;;3.00;1.75;;;28.00;88.90;;;;;;5103855;28;20023;-44
2021/10/15 08:56:57;;;;;;;4.53;1.90;;;28.10;89.10;;;;;;5103625;28;20078;-44
2021/10/15 08:59:46;;;;;;;2.88;1.85;;;28.00;89.10;;;;;;5104049;28;20044;-42
2021/10/15 09:02:17;;;;;;;4.18;1.85;;;28.00;89.20;;;;;;5103670;28;20016;-45
2021/10/15 09:04:53;;;;;;;5.78;2.28;;;28.00;89.20;;;;;;5103794;28;20077;-43
2021/10/15 09:07:21;;;;;;;5.07;1.90;;;28.00;89.20;;;;;;5103658;28;20324;-49
2021/10/15 09:09:51;;;;;;;5.32;1.63;;;28.00;89.20;;;;;;5103602;28;20028;-47
2021/10/15 09:12:19;;;;;;;4.93;2.13;;;28.00;89.20;;;;;;5103608;28;20027;-50
2021/10/15 09:14:47;;;;;;;3.63;1.90;;;28.00;89.30;;;;;;5103717;28;20028;-47
2021/10/15 09:17:29;;;;;;;2.20;1.90;;;28.00;89.30;;;;;;5103422;28;20041;-44
2021/10/15 09:19:56;;;;;;;2.53;1.83;;;28.00;89.40;;;;;;5103722;28;20028;-47
2021/10/15 09:22:31;;;;;;;2.85;1.67;;;28.00;89.50;;;;;;5103477;28;20351;-45
2021/10/15 09:25:11;;;;;;;5.10;1.98;;;28.00;89.70;;;;;;5103646;28;20020;-48
2021/10/15 09:27:42;;;;;;;3.72;1.92;;;28.00;89.60;;;;;;5103352;28;20025;-44
2021/10/15 09:30:13;;;;;;;6.57;2.00;;;28.00;89.60;;;;;;5103665;28;20028;-49
2021/10/15 09:32:53;;;;;;;2.67;1.67;;;27.90;89.40;;;;;;5103643;28;20242;-44
2021/10/15 09:35:23;;;;;;;3.50;1.77;;;27.90;89.40;;;;;;5103651;28;20089;-46
2021/10/15 09:38:00;;;;;;;5.72;2.17;;;27.90;89.50;;;;;;5103751;28;20077;-43
2021/10/15 09:40:31;;;;;;;3.22;2.08;;;27.90;89.60;;;;;;5105707;28;20431;-45
2021/10/15 09:43:02;;;;;;;4.45;1.95;;;27.90;89.60;;;;;;5107197;28;20091;-44
2021/10/15 09:45:54;;;;;;;2.80;1.80;;;27.90;89.70;;;;;;5107264;28;20204;-45
2021/10/15 09:48:27;;;;;;;9.23;2.00;;;27.90;89.70;;;;;;5106859;28;20020;-47
2021/10/15 09:51:22;;;;;;;5.68;2.20;;;27.90;89.90;;;;;;5107114;28;20059;-44
2021/10/15 09:54:12;;;;;;;6.47;1.98;;;27.90;89.90;;;;;;5106771;28;20318;-48
2021/10/15 09:56:49;;;;;;;3.47;1.80;;;27.90;90.00;;;;;;5106823;28;20150;-44
2021/10/15 09:59:16;;;;;;;4.53;1.63;;;27.90;90.00;;;;;;5106545;28;20087;-43
2021/10/15 10:01:43;;;;;;;4.50;2.22;;;27.90;90.00;;;;;;5106787;28;20309;-44
2021/10/15 10:04:11;;;;;;;4.47;1.90;;;27.80;90.00;;;;;;5106548;28;20091;-46
2021/10/15 10:06:39;;;;;;;5.97;1.65;;;27.80;90.00;;;;;;5106524;28;20083;-48
2021/10/15 10:09:07;;;;;;;5.45;1.70;;;27.80;90.00;;;;;;5106559;28;20070;-46
2021/10/15 10:11:34;;;;;;;5.38;2.00;;;27.80;90.00;;;;;;5106441;28;20031;-44
2021/10/15 10:14:01;;;;;;;3.42;1.80;;;27.80;90.10;;;;;;5106404;28;20016;-44
2021/10/15 10:16:30;;;;;;;5.15;2.13;;;27.80;90.10;;;;;;5106956;28;20027;-43
2021/10/15 10:19:01;;;;;;;5.30;1.98;;;27.80;90.10;;;;;;5106374;28;20064;-46
2021/10/15 10:21:33;;;;;;;7.32;1.98;;;27.80;90.10;;;;;;5106752;28;20028;-49
2021/10/15 10:24:19;;;;;;;5.10;2.03;;;27.80;90.10;;;;;;5106231;28;20020;-44
2021/10/15 10:26:51;;;;;;;4.57;2.30;;;27.80;90.00;;;;;;5106261;28;20034;-46
2021/10/15 10:29:19;;;;;;;4.68;1.92;;;27.80;90.10;;;;;;5106122;28;20054;-45
2021/10/15 10:31:47;;;;;;;5.65;1.80;;;27.80;90.10;;;;;;5105988;28;20013;-46
2021/10/15 10:34:25;;;;;;;4.05;1.98;;;27.70;90.10;;;;;;5106019;28;20020;-43
2021/10/15 10:37:10;;;;;;;5.10;1.80;;;27.80;90.20;;;;;;5106056;28;20308;-48
2021/10/15 10:39:38;;;;;;;4.13;1.90;;;27.80;90.10;;;;;;5106090;28;20063;-44
2021/10/15 10:42:09;;;;;;;4.07;2.25;;;27.80;90.10;;;;;;5105823;28;20190;-45
2021/10/15 10:44:40;;;;;;;5.57;2.28;;;27.80;90.20;;;;;;5105921;28;20092;-50
2021/10/15 10:47:32;;;;;;;6.22;2.60;;;27.80;90.20;;;;;;5105766;28;20035;-49
2021/10/15 10:50:11;;;;;;;;;;;27.70;90.20;;;;;;5102762;28;20051;-50
2021/10/15 10:52:47;;;;;;;7.78;2.70;;;27.70;90.20;;;;;;5105673;28;19900;-43
2021/10/15 10:55:34;;;;;;;6.35;2.50;;;27.70;90.20;;;;;;5106003;28;20043;-45
2021/10/15 10:58:01;;;;;;;3.75;2.13;;;27.70;90.20;;;;;;5105412;28;20044;-45
2021/10/15 11:00:31;;;;;;;9.27;2.08;;;27.70;90.10;;;;;;5105867;28;20040;-48
2021/10/15 11:02:59;;;;;;;5.53;2.10;;;27.70;90.10;;;;;;5105483;28;20265;-47
2021/10/15 11:05:41;;;;;;;13.02;3.15;;;27.70;90.10;;;;;;5105447;28;20032;-49
2021/10/15 11:08:27;;;;;;;10.65;2.60;;;27.70;90.10;;;;;;5105403;28;20247;-43
2021/10/15 11:11:36;;;;;;;7.20;2.60;;;27.70;90.10;;;;;;5105536;28;20028;-47
2021/10/15 11:14:03;;;;;;;9.75;3.45;;;27.80;90.10;;;;;;5097293;28;20046;-48
2021/10/15 11:16:30;;;;;;;13.93;3.97;;;27.70;90.10;;;;;;5105681;28;20091;-53
2021/10/15 11:18:57;;;;;;;7.65;3.60;;;27.70;90.10;;;;;;5105061;28;20087;-52
2021/10/15 11:21:24;;;;;;;11.07;3.15;;;27.70;90.20;;;;;;5105337;28;20036;-53
2021/10/15 11:23:53;;;;;;;10.98;3.70;;;27.80;90.20;;;;;;5105063;28;20015;-43
2021/10/15 11:26:33;;;;;;;8.13;3.95;;;27.70;90.20;;;;;;5105389;28;20095;-44
2021/10/15 11:29:00;;;;;;;7.97;3.78;;;27.80;90.20;;;;;;5104820;28;20023;-54
2021/10/15 11:31:27;;;;;;;10.80;4.10;;;27.80;90.20;;;;;;5105286;28;20189;-43
2021/10/15 11:33:53;;;;;;;10.02;3.85;;;27.80;90.20;;;;;;5104781;28;20020;-46
2021/10/15 11:36:21;;;;;;;10.07;3.80;;;27.90;90.20;;;;;;5105400;28;20196;-42
2021/10/15 11:38:58;;;;;;;12.77;3.90;;;27.90;90.10;;;;;;5104927;28;20023;-44
2021/10/15 11:41:25;;;;;;;9.30;2.97;;;28.00;90.10;;;;;;5105130;28;20028;-51
2021/10/15 11:43:51;;;;;;;7.28;3.22;;;28.00;90.10;;;;;;5104746;28;20016;-48
2021/10/15 11:46:20;;;;;;;7.18;3.20;;;28.00;90.10;;;;;;5105084;28;20027;-49
2021/10/15 11:48:49;;;;;;;6.95;3.00;;;28.00;90.00;;;;;;5104295;28;20032;-45
2021/10/15 11:51:24;;;;;;;8.88;2.80;;;28.00;90.00;;;;;;5104906;28;20091;-43
2021/10/15 11:53:59;;;;;;;7.82;3.05;;;28.00;90.00;;;;;;5104405;28;20012;-46
2021/10/15 11:56:28;;;;;;;7.57;2.90;;;28.10;89.90;;;;;;5104758;28;20024;-43
2021/10/15 11:58:56;;;;;;;5.00;2.67;;;28.10;89.80;;;;;;5104483;28;20023;-43
2021/10/15 12:01:31;;;;;;;6.35;3.08;;;28.10;89.60;;;;;;5104787;28;20039;-43
2021/10/15 12:04:00;;;;;;;5.95;2.90;;;28.10;89.50;;;;;;5103756;28;20027;-42
2021/10/15 12:06:33;;;;;;;7.13;2.60;;;28.20;89.50;;;;;;5104684;28;20207;-45
2021/10/15 12:09:13;;;;;;;7.78;2.65;;;28.20;89.70;;;;;;5104624;28;20084;-52
2021/10/15 12:11:40;;;;;;;8.20;2.85;;;28.20;89.30;;;;;;5104103;28;20032;-49
2021/10/15 12:14:34;;;;;;;9.13;2.50;;;28.30;89.20;;;;;;5104175;28;20027;-41
2021/10/15 12:17:12;;;;;;;8.73;2.63;;;28.30;89.00;;;;;;5101467;28;20054;-47
2021/10/15 12:19:51;;;;;;;8.40;2.65;;;28.40;89.00;;;;;;5104178;28;20028;-45
2021/10/15 12:22:21;;;;;;;4.82;2.10;;;28.40;89.00;;;;;;5104166;28;20208;-49
2021/10/15 12:24:56;;;;;;;7.13;2.53;;;28.40;88.90;;;;;;5104032;28;20348;-43
2021/10/15 12:27:27;;;;;;;7.93;2.25;;;28.50;88.90;;;;;;5104129;28;20023;-52
2021/10/15 12:30:03;;;;;;;3.50;2.15;;;28.50;88.90;;;;;;5103795;28;20048;-46
2021/10/15 12:32:31;;;;;;;5.68;2.08;;;28.50;88.70;;;;;;5103776;28;20016;-44
2021/10/15 12:35:07;;;;;;;8.82;2.25;;;28.60;88.80;;;;;;5103851;28;20300;-43
2021/10/15 12:37:58;;;;;;;8.85;2.20;;;28.60;88.70;;;;;;5103986;28;20254;-44
2021/10/15 12:40:33;;;;;;;5.95;2.15;;;28.60;88.60;;;;;;5104005;28;20035;-43
2021/10/15 12:43:09;;;;;;;3.83;2.13;;;28.60;88.60;;;;;;5104159;28;20024;-43
2021/10/15 12:45:39;;;;;;;5.28;2.42;;;28.70;88.60;;;;;;5103997;28;20030;-43
2021/10/15 12:48:10;;;;;;;5.75;2.20;;;28.70;88.50;;;;;;5103798;28;20024;-46
2021/10/15 12:50:44;;;;;;;6.47;2.13;;;28.70;88.50;;;;;;5104155;28;20020;-47
2021/10/15 12:53:17;;;;;;;6.20;2.15;;;28.70;88.40;;;;;;5103866;28;20028;-49
2021/10/15 12:55:53;;;;;;;6.57;1.98;;;28.80;88.40;;;;;;5104137;28;20043;-42
2021/10/15 12:58:20;;;;;;;4.72;2.42;;;28.80;88.30;;;;;;5103529;28;20060;-49
2021/10/15 13:00:57;;;;;;;4.97;2.00;;;28.80;88.30;;;;;;5104073;28;20021;-44